Time;durP1;ratioP1;P1;durP2;ratioP2;P2;SDS_P1;SDS_P2;PMS_P1;PMS_P2;Temp;Humidity;BMP_temperature;BMP_pressure;BME280_temperature;BME280_humidity;BME280_pressure;Samples;Min_cycle;Max_cycle;Signal;HPM_P1;HPM_P2
2022/07/20 00:01:21;;;;;;;4.50;2.67;;;25.50;77.00;;;;;;5118713;27;20043;-88
2022/07/20 00:03:46;;;;;;;4.87;2.70;;;25.30;77.10;;;;;;5101725;27;20080;-87
2022/07/20 00:06:13;;;;;;;7.50;2.47;;;25.30;77.90;;;;;;5137027;27;20035;-90
2022/07/20 00:11:23;;;;;;;9.60;3.00;;;25.10;78.70;;;;;;5118261;27;19919;-88
2022/07/20 00:14:00;;;;;;;5.97;2.42;;;25.00;77.40;;;;;;5118608;27;20045;-88
2022/07/20 00:16:28;;;;;;;9.52;3.03;;;25.00;77.70;;;;;;5100915;27;20547;-91
2022/07/20 00:18:54;;;;;;;7.20;2.65;;;24.80;77.00;;;;;;5117646;27;20431;-88
2022/07/20 00:21:19;;;;;;;4.33;2.30;;;24.90;77.20;;;;;;5118409;27;20069;-91
2022/07/20 00:23:45;;;;;;;4.33;2.80;;;24.90;76.70;;;;;;5118103;27;20031;-87
2022/07/20 00:26:11;;;;;;;7.43;2.55;;;24.80;76.90;;;;;;5100983;27;20065;-86
2022/07/20 00:28:36;;;;;;;7.80;3.27;;;24.80;76.80;;;;;;5118078;27;20039;-88
2022/07/20 00:31:02;;;;;;;5.93;2.70;;;24.70;76.90;;;;;;5101045;27;20045;-88
2022/07/20 00:33:28;;;;;;;5.43;2.70;;;24.70;77.30;;;;;;5117809;27;20039;-87
2022/07/20 00:35:54;;;;;;;5.33;2.30;;;24.60;77.50;;;;;;5100664;27;20368;-87
2022/07/20 00:38:19;;;;;;;6.85;2.58;;;24.60;77.30;;;;;;5100433;27;20127;-87
2022/07/20 00:40:45;;;;;;;4.87;2.50;;;24.70;77.40;;;;;;5100500;27;20071;-87
2022/07/20 00:43:10;;;;;;;7.70;2.77;;;24.50;77.60;;;;;;5117704;27;20041;-90
2022/07/20 00:45:36;;;;;;;5.83;2.70;;;24.50;77.70;;;;;;5101036;27;20035;-88
2022/07/20 00:48:02;;;;;;;4.93;2.90;;;24.40;77.40;;;;;;5135698;27;20125;-86
2022/07/20 00:50:28;;;;;;;6.47;2.80;;;24.40;77.10;;;;;;5135639;27;20548;-88
2022/07/20 00:52:54;;;;;;;8.43;2.97;;;24.40;77.30;;;;;;5100780;27;20035;-88
2022/07/20 00:55:20;;;;;;;3.95;2.67;;;24.40;77.20;;;;;;5135801;27;20486;-88
2022/07/20 00:57:46;;;;;;;;;;;24.40;77.80;;;;;;5117981;27;20058;-88
2022/07/20 01:00:13;;;;;;;6.20;2.70;;;24.30;77.80;;;;;;5117204;27;20361;-88
2022/07/20 01:02:39;;;;;;;5.88;2.88;;;24.20;77.80;;;;;;5117205;27;20043;-87
2022/07/20 01:05:13;;;;;;;4.97;2.60;;;24.20;78.00;;;;;;5100097;27;20047;-88
2022/07/20 01:07:48;;;;;;;5.00;2.70;;;24.20;77.70;;;;;;5135545;27;20035;-87
2022/07/20 01:10:16;;;;;;;3.90;2.83;;;24.10;78.00;;;;;;5117538;27;20042;-87
2022/07/20 01:12:49;;;;;;;6.53;2.80;;;23.90;78.40;;;;;;5116813;27;20074;-91
2022/07/20 01:15:15;;;;;;;9.27;2.70;;;24.00;79.20;;;;;;5100498;27;20087;-89
2022/07/20 01:17:41;;;;;;;9.93;2.75;;;24.00;79.30;;;;;;5100345;27;20125;-88
2022/07/20 01:20:13;;;;;;;10.00;3.72;;;23.90;79.10;;;;;;5099958;27;20035;-91
2022/07/20 01:22:39;;;;;;;5.13;2.72;;;23.90;79.00;;;;;;5116724;27;20038;-88
2022/07/20 01:25:05;;;;;;;7.30;2.70;;;23.60;79.60;;;;;;5099883;27;20471;-92
2022/07/20 01:27:32;;;;;;;4.93;2.50;;;23.80;78.90;;;;;;5117047;27;20092;-89
2022/07/20 01:29:58;;;;;;;4.97;2.65;;;23.90;79.30;;;;;;5117138;27;20031;-88
2022/07/20 01:32:24;;;;;;;9.13;2.80;;;23.80;79.80;;;;;;5116820;27;20526;-88
2022/07/20 01:34:49;;;;;;;8.37;2.80;;;23.70;80.10;;;;;;5116689;27;20046;-87
2022/07/20 01:37:15;;;;;;;5.83;2.93;;;23.60;79.80;;;;;;5116850;27;20077;-85
2022/07/20 01:39:40;;;;;;;6.60;2.80;;;23.60;80.10;;;;;;5134921;27;20471;-86
2022/07/20 01:42:06;;;;;;;4.63;2.73;;;23.60;80.10;;;;;;5099515;27;20042;-86
2022/07/20 01:44:32;;;;;;;9.50;2.80;;;23.50;80.70;;;;;;5116741;27;20035;-86
2022/07/20 01:46:57;;;;;;;6.03;3.10;;;23.40;81.00;;;;;;5099827;27;20047;-86
2022/07/20 01:49:23;;;;;;;3.47;2.70;;;23.40;80.50;;;;;;5116937;27;20050;-86
2022/07/20 01:51:49;;;;;;;6.23;2.70;;;23.40;80.50;;;;;;5134827;27;20035;-87
2022/07/20 01:54:14;;;;;;;6.17;2.50;;;23.30;80.40;;;;;;5099164;28;20046;-86
2022/07/20 01:56:41;;;;;;;5.43;3.00;;;23.30;80.80;;;;;;5116194;28;20134;-86
2022/07/20 01:59:07;;;;;;;6.88;3.15;;;23.30;80.60;;;;;;5116810;28;20042;-87
2022/07/20 02:01:32;;;;;;;6.80;3.05;;;23.30;80.40;;;;;;5116392;28;20039;-86
2022/07/20 02:03:58;;;;;;;9.83;2.73;;;23.30;81.00;;;;;;5099414;28;20038;-86
2022/07/20 02:06:23;;;;;;;6.57;3.20;;;23.30;81.20;;;;;;5116254;28;20100;-87
2022/07/20 02:08:49;;;;;;;6.80;2.80;;;23.10;81.10;;;;;;5134424;28;20045;-87
2022/07/20 02:11:15;;;;;;;6.37;2.97;;;23.10;81.40;;;;;;5100311;27;20122;-86
2022/07/20 02:13:40;;;;;;;6.70;2.67;;;23.00;81.30;;;;;;5098974;28;20103;-86
2022/07/20 02:16:15;;;;;;;5.93;3.13;;;23.00;81.30;;;;;;5116589;28;20043;-87
2022/07/20 02:18:52;;;;;;;7.45;3.08;;;23.00;81.20;;;;;;5099668;28;20043;-86
2022/07/20 02:21:21;;;;;;;6.68;2.75;;;22.90;81.30;;;;;;5098936;28;20035;-87
2022/07/20 02:23:47;;;;;;;5.20;2.90;;;22.90;81.60;;;;;;5116154;28;20054;-88
2022/07/20 02:26:13;;;;;;;6.60;2.88;;;22.90;81.20;;;;;;5116144;28;20039;-86
2022/07/20 02:28:39;;;;;;;6.75;3.03;;;22.90;81.30;;;;;;5115750;28;20035;-86
2022/07/20 02:31:05;;;;;;;7.28;3.10;;;22.90;81.30;;;;;;5116538;28;20050;-85
2022/07/20 02:33:32;;;;;;;13.10;3.67;;;22.90;81.00;;;;;;5098821;28;20483;-84
2022/07/20 02:35:58;;;;;;;5.03;2.95;;;22.80;81.00;;;;;;5116033;28;20043;-84
2022/07/20 02:38:24;;;;;;;6.47;2.90;;;22.70;81.30;;;;;;5115849;28;20091;-85
2022/07/20 02:40:49;;;;;;;8.17;3.30;;;22.70;81.40;;;;;;5116166;27;20031;-86
2022/07/20 02:43:15;;;;;;;4.70;3.28;;;22.80;81.60;;;;;;5138303;27;20168;-86
2022/07/20 02:45:41;;;;;;;8.52;3.42;;;22.80;81.80;;;;;;5103100;27;20051;-85
2022/07/20 02:48:07;;;;;;;5.43;2.90;;;22.70;81.50;;;;;;5103010;27;20130;-89
2022/07/20 02:50:36;;;;;;;4.73;3.13;;;22.90;81.60;;;;;;5120457;27;20035;-90
2022/07/20 02:53:02;;;;;;;4.10;2.83;;;22.70;81.50;;;;;;5120269;27;20035;-85
2022/07/20 02:55:28;;;;;;;6.97;2.78;;;22.60;82.00;;;;;;5102740;27;20035;-87
2022/07/20 02:57:54;;;;;;;7.77;3.10;;;22.60;81.70;;;;;;5119661;27;20547;-85
2022/07/20 03:00:20;;;;;;;5.03;3.00;;;22.60;82.30;;;;;;5102621;27;20276;-84
2022/07/20 03:02:47;;;;;;;7.93;3.00;;;22.40;82.20;;;;;;5102370;27;20043;-86
2022/07/20 03:05:12;;;;;;;6.60;3.00;;;22.50;82.50;;;;;;5102537;27;20100;-86
2022/07/20 03:07:38;;;;;;;6.97;3.00;;;22.60;82.90;;;;;;5102385;27;20499;-86
2022/07/20 03:10:05;;;;;;;9.30;2.80;;;22.50;83.10;;;;;;5119247;27;20027;-86
2022/07/20 03:12:30;;;;;;;;;;;22.40;82.90;;;;;;5102446;27;20285;-85
2022/07/20 03:14:56;;;;;;;5.47;2.75;;;22.40;83.30;;;;;;5119365;27;19922;-85
2022/07/20 03:17:21;;;;;;;6.70;3.03;;;22.30;83.20;;;;;;5102130;27;20534;-86
2022/07/20 03:19:47;;;;;;;9.10;3.00;;;22.30;82.90;;;;;;5137618;27;20599;-85
2022/07/20 03:22:13;;;;;;;6.43;3.03;;;22.30;82.50;;;;;;5137590;27;20077;-85
2022/07/20 03:24:39;;;;;;;5.27;2.73;;;22.30;82.60;;;;;;5137412;27;20273;-86
2022/07/20 03:27:05;;;;;;;8.68;3.13;;;22.30;82.80;;;;;;5101732;27;20043;-86
2022/07/20 03:29:30;;;;;;;7.20;3.00;;;22.60;83.10;;;;;;5101786;27;20513;-85
2022/07/20 03:31:56;;;;;;;7.37;2.83;;;22.30;83.70;;;;;;5118529;27;20043;-87
2022/07/20 03:34:21;;;;;;;4.80;3.13;;;22.20;82.40;;;;;;5118761;27;20129;-85
2022/07/20 03:36:48;;;;;;;4.43;2.73;;;22.30;82.60;;;;;;5137190;27;20122;-86
2022/07/20 03:39:15;;;;;;;3.95;3.00;;;22.30;81.70;;;;;;5137082;27;20039;-85
2022/07/20 03:41:41;;;;;;;7.57;3.13;;;22.20;81.10;;;;;;5137225;27;20382;-86
2022/07/20 03:44:06;;;;;;;5.63;2.93;;;22.40;81.20;;;;;;5101862;27;20035;-90
2022/07/20 03:46:32;;;;;;;4.50;3.20;;;22.40;81.30;;;;;;5119385;27;20273;-90
2022/07/20 03:48:58;;;;;;;4.83;3.10;;;22.30;81.10;;;;;;5119042;27;20039;-88
2022/07/20 03:51:23;;;;;;;6.50;2.80;;;22.30;81.00;;;;;;5119385;27;20474;-86
2022/07/20 03:53:49;;;;;;;5.43;2.83;;;22.30;81.40;;;;;;5119213;27;20114;-88
2022/07/20 03:56:14;;;;;;;11.30;3.37;;;22.40;81.60;;;;;;5119099;27;20462;-90
2022/07/20 03:58:40;;;;;;;4.97;2.83;;;22.30;82.10;;;;;;5101621;27;20042;-89
2022/07/20 04:01:06;;;;;;;4.33;3.00;;;22.30;81.90;;;;;;5118747;27;20490;-90
2022/07/20 04:03:31;;;;;;;4.13;2.93;;;22.30;81.70;;;;;;5102176;27;20073;-84
2022/07/20 04:05:57;;;;;;;6.20;3.13;;;22.10;81.90;;;;;;5101512;27;20074;-91
2022/07/20 04:08:22;;;;;;;7.00;3.60;;;22.30;81.70;;;;;;5101984;27;20039;-89
2022/07/20 04:10:48;;;;;;;4.57;3.07;;;22.20;81.90;;;;;;5101499;27;20119;-87
2022/07/20 04:13:14;;;;;;;6.80;3.47;;;22.30;81.70;;;;;;5101444;27;20047;-89
2022/07/20 04:15:39;;;;;;;12.57;2.97;;;22.20;81.70;;;;;;5136502;27;20050;-86
2022/07/20 04:18:05;;;;;;;4.17;2.90;;;22.40;82.00;;;;;;5101398;27;20031;-85
2022/07/20 04:20:30;;;;;;;8.50;3.40;;;22.30;82.20;;;;;;5118712;27;20042;-89
2022/07/20 04:22:56;;;;;;;3.90;2.90;;;22.20;81.80;;;;;;5118358;27;20031;-91
2022/07/20 04:25:22;;;;;;;5.53;3.50;;;22.30;82.00;;;;;;5118465;27;20042;-87
2022/07/20 04:27:49;;;;;;;5.97;3.50;;;22.30;82.30;;;;;;5136577;27;20043;-89
2022/07/20 04:30:16;;;;;;;4.38;3.45;;;22.30;82.00;;;;;;5101120;27;20122;-88
2022/07/20 04:32:42;;;;;;;6.57;4.10;;;22.30;82.00;;;;;;5102000;27;20042;-89
2022/07/20 04:35:09;;;;;;;10.18;4.30;;;22.30;82.00;;;;;;5103339;27;20039;-89
2022/07/20 04:37:35;;;;;;;8.23;5.00;;;22.30;82.20;;;;;;5118074;27;20050;-87
2022/07/20 04:40:02;;;;;;;9.38;5.32;;;22.40;82.40;;;;;;5118961;27;20122;-88
2022/07/20 04:42:28;;;;;;;14.20;7.13;;;22.40;82.60;;;;;;5101725;27;20039;-91
2022/07/20 04:44:54;;;;;;;13.27;7.93;;;22.40;82.30;;;;;;5120019;27;20046;-87
2022/07/20 04:47:19;;;;;;;14.60;8.00;;;22.50;81.50;;;;;;5130478;27;20109;-81
2022/07/20 04:49:45;;;;;;;14.63;8.50;;;22.50;81.30;;;;;;5137773;27;20038;-84
2022/07/20 04:52:10;;;;;;;15.10;8.00;;;22.50;81.30;;;;;;5121111;27;20038;-85
2022/07/20 04:54:36;;;;;;;13.47;8.13;;;22.30;81.50;;;;;;5157011;27;20022;-90
2022/07/20 04:57:02;;;;;;;11.70;6.70;;;22.50;82.60;;;;;;5121300;27;20039;-86
2022/07/20 04:59:28;;;;;;;10.90;6.57;;;22.60;83.10;;;;;;5137047;27;20037;-86
2022/07/20 05:01:53;;;;;;;9.38;5.68;;;22.60;81.80;;;;;;5121240;27;20035;-86
2022/07/20 05:04:19;;;;;;;9.30;5.53;;;22.60;81.40;;;;;;5138660;27;20091;-87
2022/07/20 05:06:45;;;;;;;10.10;4.87;;;22.70;81.80;;;;;;5120620;27;20049;-85
2022/07/20 05:09:11;;;;;;;8.50;4.00;;;22.60;82.00;;;;;;5137290;27;20081;-87
2022/07/20 05:11:37;;;;;;;6.77;4.23;;;22.60;81.50;;;;;;5120020;27;20051;-84
2022/07/20 05:14:03;;;;;;;;;;;22.70;81.50;;;;;;5120800;27;20442;-85
2022/07/20 05:16:29;;;;;;;7.05;3.60;;;22.70;81.70;;;;;;5137441;27;19918;-83
2022/07/20 05:18:54;;;;;;;7.10;3.43;;;22.70;81.80;;;;;;5137553;27;20134;-87
2022/07/20 05:21:20;;;;;;;7.77;3.53;;;22.60;81.40;;;;;;5137932;27;20038;-87
2022/07/20 05:23:46;;;;;;;7.57;3.27;;;22.70;81.40;;;;;;5138756;27;20054;-88
2022/07/20 05:26:11;;;;;;;7.40;3.57;;;22.70;81.10;;;;;;5120349;27;20034;-90
2022/07/20 05:28:39;;;;;;;5.70;3.57;;;22.90;81.30;;;;;;5120441;27;20090;-85
2022/07/20 05:31:05;;;;;;;6.70;3.47;;;22.80;81.00;;;;;;5137050;27;20038;-85
2022/07/20 05:33:30;;;;;;;7.93;3.47;;;22.90;81.00;;;;;;5155747;27;20046;-84
2022/07/20 05:35:56;;;;;;;6.97;3.57;;;22.90;80.90;;;;;;5137451;27;20530;-85
2022/07/20 05:38:22;;;;;;;8.10;3.47;;;23.00;80.90;;;;;;5120277;27;20045;-87
2022/07/20 05:40:47;;;;;;;6.70;3.30;;;23.20;81.10;;;;;;5137969;27;20062;-89
2022/07/20 05:43:13;;;;;;;7.93;3.20;;;23.20;81.00;;;;;;5137972;27;20482;-90
2022/07/20 05:45:39;;;;;;;7.80;3.23;;;23.50;81.00;;;;;;5137504;27;20034;-84
2022/07/20 05:48:06;;;;;;;14.03;3.20;;;23.60;81.20;;;;;;5137227;27;20092;-87
2022/07/20 05:50:32;;;;;;;7.40;3.13;;;23.80;80.60;;;;;;5137567;27;20045;-84
2022/07/20 05:52:57;;;;;;;8.10;3.42;;;24.00;80.60;;;;;;5119713;27;20099;-80
2022/07/20 05:55:23;;;;;;;5.47;3.47;;;24.30;81.30;;;;;;5136639;27;20042;-84
2022/07/20 05:57:49;;;;;;;6.83;3.47;;;24.50;80.50;;;;;;5136966;27;20387;-84
2022/07/20 06:00:21;;;;;;;5.87;3.17;;;24.90;79.90;;;;;;5136877;27;20041;-87
2022/07/20 06:02:46;;;;;;;6.40;3.17;;;25.00;79.60;;;;;;5119532;27;20035;-86
2022/07/20 06:05:12;;;;;;;8.20;3.40;;;25.10;78.70;;;;;;5137167;27;20087;-80
2022/07/20 06:07:38;;;;;;;9.13;3.50;;;25.50;78.00;;;;;;5137094;27;20039;-86
2022/07/20 06:10:04;;;;;;;6.87;3.30;;;25.50;77.50;;;;;;5119843;27;20045;-81
2022/07/20 06:12:30;;;;;;;;;;;25.60;77.00;;;;;;5155444;27;20057;-84
2022/07/20 06:14:55;;;;;;;7.38;3.33;;;25.70;77.20;;;;;;5136810;27;19915;-87
2022/07/20 06:17:22;;;;;;;6.07;3.20;;;25.80;77.00;;;;;;5122212;27;20043;-86
2022/07/20 06:19:51;;;;;;;11.50;3.60;;;25.90;76.70;;;;;;5140955;27;20099;-87
2022/07/20 06:22:19;;;;;;;7.68;3.30;;;26.10;77.50;;;;;;5141105;27;20074;-84
2022/07/20 06:24:45;;;;;;;6.23;3.33;;;26.20;76.80;;;;;;5124229;27;20375;-85
2022/07/20 06:27:12;;;;;;;5.95;3.20;;;26.30;76.90;;;;;;5140933;27;20046;-90
2022/07/20 06:29:38;;;;;;;7.47;3.55;;;26.50;77.30;;;;;;5159999;27;20050;-84
2022/07/20 06:32:06;;;;;;;7.35;3.15;;;26.60;77.20;;;;;;5159553;27;20500;-90
2022/07/20 06:34:37;;;;;;;7.65;3.40;;;26.60;77.50;;;;;;5124854;27;20034;-91
2022/07/20 06:37:02;;;;;;;7.88;3.10;;;26.70;77.50;;;;;;5124778;27;20395;-90
2022/07/20 06:39:28;;;;;;;7.07;3.30;;;26.80;77.90;;;;;;5124639;27;20059;-90
2022/07/20 06:41:54;;;;;;;7.17;3.27;;;27.00;77.70;;;;;;5123670;27;20034;-87
2022/07/20 06:44:19;;;;;;;10.27;3.63;;;27.00;77.20;;;;;;5140956;27;20030;-86
2022/07/20 06:46:45;;;;;;;5.97;3.40;;;27.10;77.50;;;;;;5140943;27;20082;-90
2022/07/20 06:49:11;;;;;;;8.10;3.20;;;27.10;77.60;;;;;;5123718;27;20508;-87
2022/07/20 06:51:39;;;;;;;8.43;3.43;;;27.20;77.70;;;;;;5140778;27;20043;-87
2022/07/20 06:54:04;;;;;;;10.75;3.60;;;27.30;78.00;;;;;;5123440;27;20099;-90
2022/07/20 06:56:30;;;;;;;13.10;3.70;;;27.30;78.40;;;;;;5123412;27;20104;-80
2022/07/20 06:58:56;;;;;;;10.50;3.60;;;27.40;78.00;;;;;;5158726;27;20673;-80
2022/07/20 07:01:21;;;;;;;9.03;3.40;;;27.40;77.90;;;;;;5139904;27;20058;-80
2022/07/20 07:03:47;;;;;;;12.27;3.80;;;27.60;77.50;;;;;;5158580;27;20034;-80
2022/07/20 07:06:12;;;;;;;10.67;3.67;;;27.60;77.70;;;;;;5158544;27;20478;-84
2022/07/20 07:08:38;;;;;;;6.93;3.43;;;27.80;78.00;;;;;;5139991;27;20098;-79
2022/07/20 07:11:03;;;;;;;8.70;3.83;;;27.90;78.10;;;;;;5158495;27;20150;-77
2022/07/20 07:13:29;;;;;;;10.87;3.73;;;28.00;78.20;;;;;;5157991;27;20567;-80
2022/07/20 07:15:55;;;;;;;5.97;3.33;;;28.20;78.00;;;;;;5157883;27;20034;-80
2022/07/20 07:18:20;;;;;;;9.37;3.80;;;28.20;77.80;;;;;;5158282;27;20371;-80
2022/07/20 07:20:46;;;;;;;8.33;3.90;;;28.40;78.00;;;;;;5157665;27;20031;-79
2022/07/20 07:23:11;;;;;;;9.80;3.13;;;28.40;78.00;;;;;;5139398;27;20034;-78
2022/07/20 07:25:37;;;;;;;6.13;4.00;;;28.60;77.60;;;;;;5139601;27;20493;-77
2022/07/20 07:28:02;;;;;;;8.80;3.60;;;28.70;77.30;;;;;;5156713;27;20038;-75
2022/07/20 07:30:28;;;;;;;10.93;3.65;;;28.80;77.00;;;;;;5157777;27;20039;-76
2022/07/20 07:32:54;;;;;;;10.90;3.63;;;28.90;75.70;;;;;;5157518;27;20195;-78
2022/07/20 07:35:19;;;;;;;11.03;3.33;;;29.00;75.20;;;;;;5157264;27;20043;-77
2022/07/20 07:37:45;;;;;;;8.45;3.75;;;29.10;73.90;;;;;;5157680;27;20042;-79
2022/07/20 07:40:11;;;;;;;5.05;3.22;;;29.20;74.10;;;;;;5157945;27;20062;-78
2022/07/20 07:42:37;;;;;;;10.60;3.75;;;29.30;73.10;;;;;;5157775;27;20038;-78
2022/07/20 07:45:06;;;;;;;7.53;3.67;;;29.30;73.10;;;;;;5157762;27;20035;-80
2022/07/20 07:47:33;;;;;;;11.48;3.80;;;29.30;72.80;;;;;;5157613;27;20432;-78
2022/07/20 07:49:58;;;;;;;8.68;3.75;;;29.40;73.00;;;;;;5157623;27;20035;-79
2022/07/20 07:52:24;;;;;;;11.37;3.90;;;29.40;73.00;;;;;;5157814;27;20041;-88
2022/07/20 07:54:49;;;;;;;8.90;3.63;;;29.50;73.20;;;;;;5158311;27;20308;-90
2022/07/20 07:57:15;;;;;;;8.57;4.13;;;29.50;73.70;;;;;;5122544;27;20045;-88
2022/07/20 07:59:42;;;;;;;8.77;4.00;;;29.50;74.40;;;;;;5140667;27;20267;-90
2022/07/20 08:02:08;;;;;;;7.05;4.40;;;29.60;74.40;;;;;;5122222;27;20068;-87
2022/07/20 08:04:34;;;;;;;11.75;4.93;;;29.70;74.40;;;;;;5138974;27;20030;-91
2022/07/20 08:06:59;;;;;;;13.00;5.13;;;29.70;75.40;;;;;;5137451;27;20640;-89
2022/07/20 08:09:25;;;;;;;7.65;5.30;;;29.70;75.60;;;;;;5139178;27;20035;-90
2022/07/20 08:11:51;;;;;;;12.38;5.85;;;29.80;76.10;;;;;;5157484;27;20099;-90
2022/07/20 08:14:17;;;;;;;12.30;5.88;;;29.80;77.00;;;;;;5122015;27;20486;-90
2022/07/20 08:16:43;;;;;;;13.13;6.20;;;29.70;77.80;;;;;;5122088;27;20039;-87
2022/07/20 08:19:10;;;;;;;17.38;7.22;;;29.70;78.30;;;;;;5138669;27;20031;-88
2022/07/20 08:21:35;;;;;;;12.95;6.50;;;29.70;79.10;;;;;;5157570;27;20034;-89
2022/07/20 08:24:03;;;;;;;13.65;7.15;;;29.60;79.50;;;;;;5121692;27;20045;-89
2022/07/20 08:26:29;;;;;;;16.40;8.40;;;29.70;80.50;;;;;;5121420;27;20095;-90
2022/07/20 08:28:55;;;;;;;13.43;8.23;;;29.70;81.00;;;;;;5121942;27;20034;-90
2022/07/20 08:31:21;;;;;;;15.95;8.95;;;29.70;81.20;;;;;;5121685;27;20042;-87
2022/07/20 08:33:46;;;;;;;12.40;9.75;;;29.70;81.80;;;;;;5138757;27;20411;-88
2022/07/20 08:36:12;;;;;;;15.43;10.13;;;29.80;82.20;;;;;;5156730;27;20034;-89
2022/07/20 08:38:37;;;;;;;18.27;11.63;;;29.80;82.80;;;;;;5120728;27;20059;-89
2022/07/20 08:41:03;;;;;;;16.50;11.17;;;29.90;84.00;;;;;;5121855;27;20038;-89
2022/07/20 08:43:29;;;;;;;17.83;10.77;;;29.90;84.60;;;;;;5121552;27;20324;-88
2022/07/20 08:45:55;;;;;;;17.73;11.27;;;29.90;84.70;;;;;;5121455;27;20098;-89
2022/07/20 08:48:21;;;;;;;21.63;11.82;;;29.90;85.70;;;;;;5121117;27;20042;-88
2022/07/20 08:50:48;;;;;;;18.35;12.23;;;29.90;85.70;;;;;;5121319;27;20513;-89
2022/07/20 08:53:14;;;;;;;18.00;12.02;;;29.90;86.40;;;;;;5121660;27;20169;-89
2022/07/20 08:55:39;;;;;;;25.13;13.27;;;30.10;87.30;;;;;;5138196;27;20183;-90
2022/07/20 08:58:05;;;;;;;21.83;13.63;;;30.10;86.90;;;;;;5121049;27;20039;-90
2022/07/20 09:00:31;;;;;;;20.27;12.82;;;30.20;87.00;;;;;;5138387;27;20501;-90
2022/07/20 09:03:02;;;;;;;16.38;12.32;;;30.20;87.00;;;;;;5156876;27;20490;-89
2022/07/20 09:05:30;;;;;;;21.05;13.35;;;30.30;87.30;;;;;;5138106;27;20037;-89
2022/07/20 09:07:57;;;;;;;23.13;13.18;;;30.30;87.30;;;;;;5138037;27;20103;-88
2022/07/20 09:10:26;;;;;;;19.63;12.73;;;30.30;87.50;;;;;;5120305;27;20038;-88
2022/07/20 09:12:55;;;;;;;18.05;12.48;;;30.30;87.30;;;;;;5137666;27;20394;-90
2022/07/20 09:15:44;;;;;;;19.75;12.60;;;30.40;87.00;;;;;;5120562;27;20038;-89
2022/07/20 09:18:13;;;;;;;15.82;11.90;;;30.40;86.00;;;;;;5120466;27;20039;-89
2022/07/20 09:20:46;;;;;;;22.65;13.57;;;30.50;86.50;;;;;;5120545;27;20428;-89
2022/07/20 09:23:20;;;;;;;20.00;13.32;;;30.60;86.40;;;;;;5120488;27;20041;-89
2022/07/20 09:25:54;;;;;;;26.90;14.68;;;30.50;85.90;;;;;;5137672;27;20039;-89
2022/07/20 09:28:21;;;;;;;19.88;13.52;;;30.50;85.40;;;;;;5137371;27;20049;-87
2022/07/20 09:30:55;;;;;;;23.42;14.55;;;30.60;85.60;;;;;;5119959;27;20045;-88
2022/07/20 09:33:27;;;;;;;20.17;15.68;;;30.60;84.70;;;;;;5120168;27;20043;-88
2022/07/20 09:35:53;;;;;;;19.33;14.77;;;30.70;84.40;;;;;;5137366;27;20039;-89
2022/07/20 09:38:19;;;;;;;23.10;15.65;;;30.70;84.40;;;;;;5137486;27;20031;-87
2022/07/20 09:40:46;;;;;;;20.80;14.77;;;30.70;84.20;;;;;;5120030;27;20100;-84
2022/07/20 09:43:33;;;;;;;24.83;16.48;;;30.70;84.30;;;;;;5137030;27;20093;-90
2022/07/20 09:46:20;;;;;;;23.58;16.77;;;30.60;83.90;;;;;;5137528;27;20038;-85
2022/07/20 09:48:48;;;;;;;24.90;16.30;;;30.60;83.80;;;;;;5120147;27;20502;-89
2022/07/20 09:51:19;;;;;;;23.35;16.10;;;30.70;84.00;;;;;;5136889;27;20042;-88
2022/07/20 09:53:45;;;;;;;21.17;16.17;;;30.70;83.80;;;;;;5137154;27;20059;-86
2022/07/20 09:56:15;;;;;;;26.08;16.50;;;30.80;83.90;;;;;;5137278;27;20052;-85
2022/07/20 09:58:44;;;;;;;21.23;15.93;;;30.90;83.50;;;;;;5137468;27;20046;-84
2022/07/20 10:01:10;;;;;;;23.65;16.38;;;30.90;83.40;;;;;;5120008;27;20034;-85
2022/07/20 10:03:36;;;;;;;20.65;16.42;;;31.00;82.70;;;;;;5119716;27;20041;-85
2022/07/20 10:06:02;;;;;;;20.10;14.98;;;31.10;81.40;;;;;;5120056;27;20045;-87
2022/07/20 10:08:29;;;;;;;16.35;13.40;;;31.10;80.30;;;;;;5119451;27;20039;-85
2022/07/20 10:10:55;;;;;;;16.83;13.55;;;31.00;79.00;;;;;;5155420;27;20042;-89
2022/07/20 10:13:21;;;;;;;19.83;13.00;;;31.00;79.10;;;;;;5136671;27;20127;-88
2022/07/20 10:16:13;;;;;;;18.02;12.88;;;31.00;78.40;;;;;;5137206;27;20046;-90
2022/07/20 10:18:40;;;;;;;15.88;12.77;;;31.00;78.30;;;;;;5120096;27;20121;-90
2022/07/20 10:21:36;;;;;;;19.95;12.60;;;31.00;78.60;;;;;;5137137;27;20031;-84
2022/07/20 10:24:18;;;;;;;18.52;12.13;;;31.10;77.80;;;;;;5136529;27;20034;-88
2022/07/20 10:26:45;;;;;;;14.80;11.73;;;31.10;79.00;;;;;;5137192;27;20145;-89
2022/07/20 10:29:32;;;;;;;17.65;11.48;;;31.20;78.90;;;;;;5155513;27;20030;-91
2022/07/20 10:31:59;;;;;;;17.60;12.85;;;31.10;78.90;;;;;;5119385;27;20034;-88
2022/07/20 10:34:36;;;;;;;17.90;11.73;;;31.10;79.80;;;;;;5135687;27;20503;-86
2022/07/20 10:37:23;;;;;;;16.63;11.18;;;31.10;79.40;;;;;;5136202;27;20038;-86
2022/07/20 10:39:50;;;;;;;17.65;11.50;;;31.30;79.90;;;;;;5136343;27;20078;-85
2022/07/20 10:42:23;;;;;;;17.75;11.40;;;31.20;79.20;;;;;;5119286;27;20070;-87
2022/07/20 10:44:50;;;;;;;16.95;10.65;;;31.30;77.90;;;;;;5118912;27;20038;-86
2022/07/20 10:47:42;;;;;;;14.05;10.63;;;31.50;78.40;;;;;;5133024;27;20035;-89
2022/07/20 10:50:10;;;;;;;16.90;10.55;;;31.50;76.10;;;;;;5107869;27;20136;-78
2022/07/20 10:52:36;;;;;;;11.73;9.63;;;31.50;77.10;;;;;;5133954;28;20370;-83
2022/07/20 10:55:04;;;;;;;14.80;10.38;;;31.50;77.00;;;;;;5115545;28;20043;-86
2022/07/20 10:57:31;;;;;;;12.75;9.95;;;31.50;77.50;;;;;;5115295;28;20088;-85
2022/07/20 11:00:01;;;;;;;14.82;10.68;;;31.70;77.70;;;;;;5098880;28;20035;-85
2022/07/20 11:02:26;;;;;;;15.50;9.85;;;31.60;76.90;;;;;;5135163;27;20042;-86
2022/07/20 11:04:52;;;;;;;15.43;9.70;;;31.60;77.00;;;;;;5119788;27;20035;-86
2022/07/20 11:07:28;;;;;;;11.73;9.77;;;31.60;77.90;;;;;;5120313;27;20047;-89
2022/07/20 11:09:54;;;;;;;16.63;10.05;;;31.60;77.80;;;;;;5119823;27;20168;-89
2022/07/20 11:12:29;;;;;;;17.73;9.57;;;31.60;78.30;;;;;;5119451;27;20509;-89
2022/07/20 11:14:56;;;;;;;12.75;10.02;;;31.70;78.50;;;;;;5119605;27;20495;-86
2022/07/20 11:17:22;;;;;;;12.10;9.18;;;31.80;78.90;;;;;;5138326;27;20039;-84
2022/07/20 11:19:48;;;;;;;;;;;31.80;79.00;;;;;;5119969;27;20031;-88
2022/07/20 11:22:15;;;;;;;10.82;7.97;;;31.90;77.90;;;;;;5119967;27;20010;-88
2022/07/20 11:24:40;;;;;;;14.40;8.70;;;31.90;78.80;;;;;;5120891;27;20035;-89
2022/07/20 11:27:17;;;;;;;15.07;8.27;;;32.00;77.70;;;;;;5118979;27;20042;-88
2022/07/20 11:29:52;;;;;;;11.45;7.60;;;32.00;76.80;;;;;;5118965;27;20066;-89
2022/07/20 11:32:19;;;;;;;14.73;7.78;;;32.00;77.40;;;;;;5101491;27;20050;-89
2022/07/20 11:34:51;;;;;;;13.88;7.57;;;32.00;76.20;;;;;;5118711;27;20468;-90
2022/07/20 11:37:21;;;;;;;11.23;7.50;;;32.20;76.80;;;;;;5101092;27;20078;-91
2022/07/20 11:39:47;;;;;;;11.73;7.50;;;32.20;77.20;;;;;;5119141;27;20035;-90
2022/07/20 11:42:15;;;;;;;14.82;8.07;;;32.30;77.20;;;;;;5102938;27;20031;-91
2022/07/20 11:44:42;;;;;;;10.93;7.00;;;32.40;77.60;;;;;;5101938;27;20035;-90
2022/07/20 11:47:08;;;;;;;11.13;6.93;;;32.40;77.30;;;;;;5102286;27;20096;-91
2022/07/20 11:49:34;;;;;;;11.32;7.40;;;32.50;77.10;;;;;;5102543;27;20066;-89
2022/07/20 11:52:05;;;;;;;;;;;32.50;77.30;;;;;;5102840;27;20050;-90
2022/07/20 11:54:35;;;;;;;9.90;6.75;;;32.40;76.70;;;;;;5102420;27;19933;-91
2022/07/20 11:57:01;;;;;;;12.70;7.07;;;32.40;77.50;;;;;;5101412;27;20055;-89
2022/07/20 11:59:27;;;;;;;11.60;7.15;;;32.30;76.30;;;;;;5102442;27;20031;-89
2022/07/20 12:01:55;;;;;;;12.68;6.70;;;32.30;76.40;;;;;;5118705;27;20494;-90
2022/07/20 12:04:22;;;;;;;8.43;6.22;;;32.20;76.00;;;;;;5101115;27;20042;-91
2022/07/20 12:06:51;;;;;;;12.52;6.38;;;32.30;76.20;;;;;;5101532;27;20402;-89
2022/07/20 12:09:20;;;;;;;12.18;6.60;;;32.30;76.30;;;;;;5103213;27;20043;-87
2022/07/20 12:11:53;;;;;;;9.98;6.47;;;32.20;75.70;;;;;;5121733;27;20078;-87
2022/07/20 12:14:45;;;;;;;9.77;6.45;;;32.40;76.40;;;;;;5101320;27;20081;-88
2022/07/20 12:17:16;;;;;;;11.50;7.30;;;32.30;76.60;;;;;;5097231;27;20062;-89
2022/07/20 12:19:45;;;;;;;13.10;6.07;;;32.20;76.60;;;;;;5101051;27;20492;-90
2022/07/20 12:22:24;;;;;;;8.25;5.40;;;32.30;76.50;;;;;;5118175;27;20035;-88
2022/07/20 12:24:51;;;;;;;7.50;5.63;;;32.30;74.60;;;;;;5101836;27;20122;-90
2022/07/20 12:27:17;;;;;;;9.50;5.28;;;32.30;75.80;;;;;;5101832;27;20039;-92
2022/07/20 12:29:42;;;;;;;9.27;5.28;;;32.30;74.90;;;;;;5101388;27;20039;-92
2022/07/20 12:32:08;;;;;;;8.75;4.85;;;32.40;74.40;;;;;;5117836;27;20039;-90
2022/07/20 12:34:54;;;;;;;6.78;4.63;;;32.30;73.30;;;;;;5100285;27;20035;-89
2022/07/20 12:37:22;;;;;;;10.52;4.93;;;32.30;72.30;;;;;;5116842;27;20040;-87
2022/07/20 12:39:54;;;;;;;7.45;5.15;;;32.30;73.40;;;;;;5117558;27;20126;-88
2022/07/20 12:42:24;;;;;;;8.85;4.85;;;32.20;73.70;;;;;;5118048;27;20035;-88
2022/07/20 12:44:59;;;;;;;8.02;4.70;;;32.30;73.50;;;;;;5100582;27;20479;-90
2022/07/20 12:47:24;;;;;;;8.25;5.30;;;32.30;74.60;;;;;;5100721;27;20475;-88